Decoded Metar for YLHI ( in ) (IATA:) | Meteo·Mobile Aviation Weather
aviador You're here:

YLHI Decoded Metar

in
Report Time2018-12-17 13:30:00
UTC Time2018-12-17 14:00:53
Flight Rules vfr VFR
Wind060° at 13 kt
W.Decomp.*RWY 10: 10.0 kt HW 8.4 kt LCW
W.Rank060° ranks 13
Current wind is above 060° avg. (11.2)
Visibility8000 m
Phenomena:N/A
Clouds:Scattered 023 Hf
Expected CloudBase > 1,200 ft AGL from Temp-Dew spread
CeilingNone
Temp22°C
Dew Point19°C (83% RH)
AAT20.5°C
QNH1015 hPa
Raw Report
METAR YLHI 171330Z AUTO 06013KT 8000 // SCT023 22/19 Q1015=

Extra information for YLHI:More info

Social comments